sensor_id;sensor_type;location;lat;lon;timestamp;pressure;altitude;pressure_sealevel;temperature;humidity
31044;BME280;17710;52.520;13.352;2022-11-18T00:02:26;99999.88;;;7.96;54.21
31044;BME280;17710;52.520;13.352;2022-11-18T00:04:52;100011.47;;;8.14;53.40
31044;BME280;17710;52.520;13.352;2022-11-18T00:07:19;100008.84;;;8.14;53.28
31044;BME280;17710;52.520;13.352;2022-11-18T00:09:45;100011.22;;;7.98;53.67
31044;BME280;17710;52.520;13.352;2022-11-18T00:12:13;100006.63;;;8.04;53.54
31044;BME280;17710;52.520;13.352;2022-11-18T00:14:57;100014.56;;;8.02;53.41
31044;BME280;17710;52.520;13.352;2022-11-18T00:17:24;99999.31;;;8.12;53.15
31044;BME280;17710;52.520;13.352;2022-11-18T00:19:50;99996.69;;;8.12;53.01
31044;BME280;17710;52.520;13.352;2022-11-18T00:22:16;99997.53;;;8.12;53.35
31044;BME280;17710;52.520;13.352;2022-11-18T00:24:43;100000.00;;;7.93;53.56
31044;BME280;17710;52.520;13.352;2022-11-18T00:27:10;100008.53;;;8.00;53.44
31044;BME280;17710;52.520;13.352;2022-11-18T00:29:38;100014.66;;;8.00;53.72
31044;BME280;17710;52.520;13.352;2022-11-18T00:32:05;100013.94;;;7.95;52.92
31044;BME280;17710;52.520;13.352;2022-11-18T00:34:31;100012.66;;;8.07;53.63
31044;BME280;17710;52.520;13.352;2022-11-18T00:36:58;100008.34;;;8.05;53.28
31044;BME280;17710;52.520;13.352;2022-11-18T00:39:25;100005.81;;;8.01;52.79
31044;BME280;17710;52.520;13.352;2022-11-18T00:41:51;100009.22;;;8.05;52.61
31044;BME280;17710;52.520;13.352;2022-11-18T00:44:36;100018.47;;;7.92;52.55
31044;BME280;17710;52.520;13.352;2022-11-18T00:47:04;100016.75;;;7.91;52.80
31044;BME280;17710;52.520;13.352;2022-11-18T00:49:30;100018.66;;;8.11;52.13
31044;BME280;17710;52.520;13.352;2022-11-18T00:51:57;100021.19;;;8.14;51.96
31044;BME280;17710;52.520;13.352;2022-11-18T00:54:23;100019.50;;;8.11;51.59
31044;BME280;17710;52.520;13.352;2022-11-18T00:56:50;100021.31;;;8.09;51.47
31044;BME280;17710;52.520;13.352;2022-11-18T00:59:17;100009.09;;;8.08;51.41
31044;BME280;17710;52.520;13.352;2022-11-18T01:01:43;100010.94;;;8.06;51.43
31044;BME280;17710;52.520;13.352;2022-11-18T01:04:11;100015.59;;;8.21;51.05
31044;BME280;17710;52.520;13.352;2022-11-18T01:06:37;100011.72;;;7.85;51.20
31044;BME280;17710;52.520;13.352;2022-11-18T01:09:07;100009.53;;;7.96;51.32
31044;BME280;17710;52.520;13.352;2022-11-18T01:11:34;100010.22;;;8.01;50.77
31044;BME280;17710;52.520;13.352;2022-11-18T01:14:18;100014.72;;;7.74;51.37
31044;BME280;17710;52.520;13.352;2022-11-18T01:16:45;100014.38;;;7.83;51.32
31044;BME280;17710;52.520;13.352;2022-11-18T01:19:16;100006.38;;;7.61;51.48
31044;BME280;17710;52.520;13.352;2022-11-18T01:21:43;100011.56;;;7.65;51.86
31044;BME280;17710;52.520;13.352;2022-11-18T01:24:09;100008.81;;;7.68;50.90
31044;BME280;17710;52.520;13.352;2022-11-18T01:26:36;100007.53;;;7.79;51.22
31044;BME280;17710;52.520;13.352;2022-11-18T01:29:03;100014.91;;;7.68;51.25
31044;BME280;17710;52.520;13.352;2022-11-18T01:31:29;100016.06;;;7.86;50.70
31044;BME280;17710;52.520;13.352;2022-11-18T01:33:59;100010.66;;;7.89;50.48
31044;BME280;17710;52.520;13.352;2022-11-18T01:36:27;100018.69;;;7.86;50.42
31044;BME280;17710;52.520;13.352;2022-11-18T01:38:54;100023.31;;;7.79;50.35
31044;BME280;17710;52.520;13.352;2022-11-18T01:41:24;100019.41;;;7.89;49.98
31044;BME280;17710;52.520;13.352;2022-11-18T01:43:55;100019.78;;;7.80;50.42
31044;BME280;17710;52.520;13.352;2022-11-18T01:46:27;100019.00;;;7.52;50.37
31044;BME280;17710;52.520;13.352;2022-11-18T01:48:56;100022.53;;;7.51;50.78
31044;BME280;17710;52.520;13.352;2022-11-18T01:51:30;100018.97;;;7.53;50.39
31044;BME280;17710;52.520;13.352;2022-11-18T01:54:01;100020.34;;;7.39;50.76
31044;BME280;17710;52.520;13.352;2022-11-18T01:56:32;100023.88;;;7.38;50.78
31044;BME280;17710;52.520;13.352;2022-11-18T01:59:05;100014.81;;;7.46;50.84
31044;BME280;17710;52.520;13.352;2022-11-18T02:01:33;100024.91;;;7.58;50.30
31044;BME280;17710;52.520;13.352;2022-11-18T02:03:59;100021.72;;;7.49;50.37
31044;BME280;17710;52.520;13.352;2022-11-18T02:06:27;100024.09;;;7.56;50.29
31044;BME280;17710;52.520;13.352;2022-11-18T02:08:55;100020.38;;;7.37;50.63
31044;BME280;17710;52.520;13.352;2022-11-18T02:11:22;100020.28;;;7.40;50.42
31044;BME280;17710;52.520;13.352;2022-11-18T02:14:09;100025.16;;;7.26;50.67
31044;BME280;17710;52.520;13.352;2022-11-18T02:16:45;100023.22;;;7.31;50.46
31044;BME280;17710;52.520;13.352;2022-11-18T02:19:28;100024.91;;;7.34;50.48
31044;BME280;17710;52.520;13.352;2022-11-18T02:22:07;100027.53;;;7.58;49.98
31044;BME280;17710;52.520;13.352;2022-11-18T02:24:40;100027.75;;;7.52;50.24
31044;BME280;17710;52.520;13.352;2022-11-18T02:27:34;100027.72;;;7.54;49.70
31044;BME280;17710;52.520;13.352;2022-11-18T02:30:10;100026.75;;;7.30;50.15
31044;BME280;17710;52.520;13.352;2022-11-18T02:32:41;100031.88;;;7.35;50.56
31044;BME280;17710;52.520;13.352;2022-11-18T02:35:12;100031.66;;;7.41;50.21
31044;BME280;17710;52.520;13.352;2022-11-18T02:37:45;100026.03;;;7.51;49.92
31044;BME280;17710;52.520;13.352;2022-11-18T02:40:16;100031.66;;;7.41;50.01
31044;BME280;17710;52.520;13.352;2022-11-18T02:42:48;100030.81;;;7.40;50.23
31044;BME280;17710;52.520;13.352;2022-11-18T02:45:18;100039.75;;;7.35;49.98
31044;BME280;17710;52.520;13.352;2022-11-18T02:47:45;100030.84;;;7.12;50.50
31044;BME280;17710;52.520;13.352;2022-11-18T02:50:17;100029.75;;;7.19;50.56
31044;BME280;17710;52.520;13.352;2022-11-18T02:52:45;100027.00;;;7.22;50.42
31044;BME280;17710;52.520;13.352;2022-11-18T02:55:13;100034.59;;;7.05;50.81
31044;BME280;17710;52.520;13.352;2022-11-18T02:57:43;100039.09;;;7.28;50.45
31044;BME280;17710;52.520;13.352;2022-11-18T03:00:11;100037.31;;;7.29;50.19
31044;BME280;17710;52.520;13.352;2022-11-18T03:02:43;100037.91;;;7.37;49.98
31044;BME280;17710;52.520;13.352;2022-11-18T03:05:16;100028.94;;;7.17;50.27
31044;BME280;17710;52.520;13.352;2022-11-18T03:07:47;100034.19;;;7.17;50.07
31044;BME280;17710;52.520;13.352;2022-11-18T03:10:16;100027.41;;;7.10;49.96
31044;BME280;17710;52.520;13.352;2022-11-18T03:12:48;100029.94;;;6.87;50.63
31044;BME280;17710;52.520;13.352;2022-11-18T03:15:22;100028.38;;;7.08;50.81
31044;BME280;17710;52.520;13.352;2022-11-18T03:18:00;100023.72;;;7.16;50.76
31044;BME280;17710;52.520;13.352;2022-11-18T03:20:35;100021.41;;;7.07;50.55
31044;BME280;17710;52.520;13.352;2022-11-18T03:23:06;100025.16;;;7.00;51.01
31044;BME280;17710;52.520;13.352;2022-11-18T03:25:37;100034.63;;;7.04;51.06
31044;BME280;17710;52.520;13.352;2022-11-18T03:28:08;100036.09;;;6.86;51.89
31044;BME280;17710;52.520;13.352;2022-11-18T03:30:40;100042.19;;;6.87;52.40
31044;BME280;17710;52.520;13.352;2022-11-18T03:33:13;100055.53;;;6.80;52.61
31044;BME280;17710;52.520;13.352;2022-11-18T03:35:44;100042.94;;;6.90;53.19
31044;BME280;17710;52.520;13.352;2022-11-18T03:38:15;100042.63;;;7.01;52.65
31044;BME280;17710;52.520;13.352;2022-11-18T03:40:45;100050.78;;;6.92;53.25
31044;BME280;17710;52.520;13.352;2022-11-18T03:43:18;100038.59;;;7.17;52.34
31044;BME280;17710;52.520;13.352;2022-11-18T03:45:51;100057.41;;;7.03;52.47
31044;BME280;17710;52.520;13.352;2022-11-18T03:48:25;100053.59;;;6.86;52.86
31044;BME280;17710;52.520;13.352;2022-11-18T03:50:54;100060.06;;;6.75;53.05
31044;BME280;17710;52.520;13.352;2022-11-18T03:53:25;100062.97;;;6.94;52.50
31044;BME280;17710;52.520;13.352;2022-11-18T03:55:57;100065.75;;;6.62;53.30
31044;BME280;17710;52.520;13.352;2022-11-18T03:58:29;100065.75;;;6.62;52.90
31044;BME280;17710;52.520;13.352;2022-11-18T04:01:00;100072.44;;;7.00;52.31
31044;BME280;17710;52.520;13.352;2022-11-18T04:03:31;100070.84;;;6.66;52.27
31044;BME280;17710;52.520;13.352;2022-11-18T04:06:03;100078.56;;;6.71;52.45
31044;BME280;17710;52.520;13.352;2022-11-18T04:08:38;100078.53;;;6.72;52.70
31044;BME280;17710;52.520;13.352;2022-11-18T04:11:12;100076.22;;;6.62;52.67
31044;BME280;17710;52.520;13.352;2022-11-18T04:14:02;100083.88;;;6.40;53.32
31044;BME280;17710;52.520;13.352;2022-11-18T04:16:29;100081.31;;;6.37;53.67
31044;BME280;17710;52.520;13.352;2022-11-18T04:18:57;100082.06;;;6.42;53.52
31044;BME280;17710;52.520;13.352;2022-11-18T04:21:24;100078.06;;;6.58;53.64
31044;BME280;17710;52.520;13.352;2022-11-18T04:23:50;100078.41;;;6.48;54.05
31044;BME280;17710;52.520;13.352;2022-11-18T04:26:17;100084.03;;;6.63;53.14
31044;BME280;17710;52.520;13.352;2022-11-18T04:28:43;100089.03;;;6.43;53.81
31044;BME280;17710;52.520;13.352;2022-11-18T04:31:09;100089.97;;;6.40;54.37
31044;BME280;17710;52.520;13.352;2022-11-18T04:33:36;100094.44;;;6.37;53.97
31044;BME280;17710;52.520;13.352;2022-11-18T04:36:07;100089.63;;;6.53;54.15
31044;BME280;17710;52.520;13.352;2022-11-18T04:38:34;100095.78;;;6.21;54.67
31044;BME280;17710;52.520;13.352;2022-11-18T04:41:00;100100.19;;;6.20;55.44
31044;BME280;17710;52.520;13.352;2022-11-18T04:43:27;100103.94;;;6.43;55.51
31044;BME280;17710;52.520;13.352;2022-11-18T04:45:53;100102.06;;;6.46;55.71
31044;BME280;17710;52.520;13.352;2022-11-18T04:48:20;100116.72;;;6.53;54.75
31044;BME280;17710;52.520;13.352;2022-11-18T04:50:46;100118.53;;;6.51;55.00
31044;BME280;17710;52.520;13.352;2022-11-18T04:53:14;100124.34;;;6.62;54.32
31044;BME280;17710;52.520;13.352;2022-11-18T04:55:41;100122.69;;;6.58;54.62
31044;BME280;17710;52.520;13.352;2022-11-18T04:58:07;100127.03;;;6.30;54.79
31044;BME280;17710;52.520;13.352;2022-11-18T05:00:34;100122.72;;;6.27;54.96
31044;BME280;17710;52.520;13.352;2022-11-18T05:03:00;100124.66;;;6.21;54.94
31044;BME280;17710;52.520;13.352;2022-11-18T05:05:26;100129.50;;;6.04;56.22
31044;BME280;17710;52.520;13.352;2022-11-18T05:07:53;100124.78;;;6.16;56.41
31044;BME280;17710;52.520;13.352;2022-11-18T05:10:21;100124.78;;;6.16;55.73
31044;BME280;17710;52.520;13.352;2022-11-18T05:12:48;100129.34;;;6.10;56.43
31044;BME280;17710;52.520;13.352;2022-11-18T05:15:13;100135.59;;;6.04;55.33
31044;BME280;17710;52.520;13.352;2022-11-18T05:17:40;100135.81;;;5.96;55.79
31044;BME280;17710;52.520;13.352;2022-11-18T05:20:07;100132.03;;;6.07;55.74
31044;BME280;17710;52.520;13.352;2022-11-18T05:22:34;100122.75;;;6.26;55.07
31044;BME280;17710;52.520;13.352;2022-11-18T05:25:01;100133.25;;;6.26;54.86
31044;BME280;17710;52.520;13.352;2022-11-18T05:27:29;100137.78;;;6.21;55.12
31044;BME280;17710;52.520;13.352;2022-11-18T05:29:55;100142.19;;;6.19;54.46
31044;BME280;17710;52.520;13.352;2022-11-18T05:32:21;100138.25;;;6.35;54.34
31044;BME280;17710;52.520;13.352;2022-11-18T05:34:51;100149.72;;;6.31;53.76
31044;BME280;17710;52.520;13.352;2022-11-18T05:37:17;100143.59;;;5.99;54.62
31044;BME280;17710;52.520;13.352;2022-11-18T05:39:44;100143.38;;;6.07;54.17
31044;BME280;17710;52.520;13.352;2022-11-18T05:42:11;100144.94;;;6.14;53.32
31044;BME280;17710;52.520;13.352;2022-11-18T05:45:10;100147.97;;;5.99;53.58
31044;BME280;17710;52.520;13.352;2022-11-18T05:47:36;100158.34;;;6.04;53.19
31044;BME280;17710;52.520;13.352;2022-11-18T05:50:17;100162.81;;;6.32;52.21
31044;BME280;17710;52.520;13.352;2022-11-18T05:52:43;100159.47;;;6.27;52.42
31044;BME280;17710;52.520;13.352;2022-11-18T05:55:12;100169.03;;;6.30;52.64
31044;BME280;17710;52.520;13.352;2022-11-18T05:57:39;100171.19;;;6.45;52.05
31044;BME280;17710;52.520;13.352;2022-11-18T06:03:29;100175.50;;;6.17;52.20
31044;BME280;17710;52.520;13.352;2022-11-18T06:05:59;100182.56;;;6.13;52.27
31044;BME280;17710;52.520;13.352;2022-11-18T06:08:29;100182.66;;;6.10;52.13
31044;BME280;17710;52.520;13.352;2022-11-18T06:10:57;100188.63;;;6.17;51.40
31044;BME280;17710;52.520;13.352;2022-11-18T06:13:26;100189.03;;;6.32;51.14
31044;BME280;17710;52.520;13.352;2022-11-18T06:15:56;100188.84;;;6.08;51.08
31044;BME280;17710;52.520;13.352;2022-11-18T06:18:26;100196.47;;;6.17;51.20
31044;BME280;17710;52.520;13.352;2022-11-18T06:20:55;100195.72;;;6.12;50.54
31044;BME280;17710;52.520;13.352;2022-11-18T06:23:24;100202.53;;;6.19;50.38
31044;BME280;17710;52.520;13.352;2022-11-18T06:25:51;100205.00;;;6.25;49.71
31044;BME280;17710;52.520;13.352;2022-11-18T06:28:19;100210.13;;;5.95;49.74
31044;BME280;17710;52.520;13.352;2022-11-18T06:30:47;100201.31;;;5.98;50.18
31044;BME280;17710;52.520;13.352;2022-11-18T06:33:13;100212.84;;;5.91;50.43
31044;BME280;17710;52.520;13.352;2022-11-18T06:35:42;100217.28;;;5.90;49.69
31044;BME280;17710;52.520;13.352;2022-11-18T06:38:08;100218.50;;;5.74;49.64
31044;BME280;17710;52.520;13.352;2022-11-18T06:40:35;100224.47;;;5.79;49.76
31044;BME280;17710;52.520;13.352;2022-11-18T06:43:04;100227.44;;;6.03;49.77
31044;BME280;17710;52.520;13.352;2022-11-18T06:45:49;100218.41;;;6.14;49.08
31044;BME280;17710;52.520;13.352;2022-11-18T06:48:30;100227.28;;;6.09;49.96
31044;BME280;17710;52.520;13.352;2022-11-18T06:50:58;100239.03;;;5.94;49.06
31044;BME280;17710;52.520;13.352;2022-11-18T06:53:24;100227.03;;;5.82;49.89
31044;BME280;17710;52.520;13.352;2022-11-18T06:55:51;100244.75;;;6.10;49.36
31044;BME280;17710;52.520;13.352;2022-11-18T06:58:18;100249.13;;;6.09;48.72
31044;BME280;17710;52.520;13.352;2022-11-18T07:00:44;100244.28;;;6.28;47.82
31044;BME280;17710;52.520;13.352;2022-11-18T07:03:11;100251.16;;;5.98;47.82
31044;BME280;17710;52.520;13.352;2022-11-18T07:05:38;100248.38;;;6.04;47.75
31044;BME280;17710;52.520;13.352;2022-11-18T07:08:05;100248.78;;;5.87;47.97
31044;BME280;17710;52.520;13.352;2022-11-18T07:10:32;100251.84;;;6.05;47.31
31044;BME280;17710;52.520;13.352;2022-11-18T07:12:58;100248.16;;;5.76;47.72
31044;BME280;17710;52.520;13.352;2022-11-18T07:15:25;100252.28;;;5.86;48.08
31044;BME280;17710;52.520;13.352;2022-11-18T07:17:51;100256.25;;;5.67;47.73
31044;BME280;17710;52.520;13.352;2022-11-18T07:20:20;100269.22;;;5.72;47.53
31044;BME280;17710;52.520;13.352;2022-11-18T07:22:46;100266.88;;;5.59;47.63
31044;BME280;17710;52.520;13.352;2022-11-18T07:25:14;100275.28;;;5.75;48.05
31044;BME280;17710;52.520;13.352;2022-11-18T07:27:41;100274.59;;;5.67;47.89
31044;BME280;17710;52.520;13.352;2022-11-18T07:30:11;100280.41;;;5.80;47.47
31044;BME280;17710;52.520;13.352;2022-11-18T07:32:38;100279.69;;;5.73;47.66
31044;BME280;17710;52.520;13.352;2022-11-18T07:35:06;100282.75;;;5.92;47.65
31044;BME280;17710;52.520;13.352;2022-11-18T07:37:35;100282.88;;;5.87;47.96
31044;BME280;17710;52.520;13.352;2022-11-18T07:40:02;100277.34;;;5.99;47.58
31044;BME280;17710;52.520;13.352;2022-11-18T07:42:30;100286.81;;;6.05;47.22
31044;BME280;17710;52.520;13.352;2022-11-18T07:45:08;100279.25;;;5.93;46.63
31044;BME280;17710;52.520;13.352;2022-11-18T07:47:37;100291.06;;;5.72;47.02
31044;BME280;17710;52.520;13.352;2022-11-18T07:50:04;100284.94;;;5.73;47.30
31044;BME280;17710;52.520;13.352;2022-11-18T07:52:31;100282.91;;;5.84;46.61
31044;BME280;17710;52.520;13.352;2022-11-18T07:54:57;100283.75;;;5.86;47.40
31044;BME280;17710;52.520;13.352;2022-11-18T07:57:24;100284.53;;;5.91;46.49
31044;BME280;17710;52.520;13.352;2022-11-18T07:59:52;100288.38;;;6.14;45.94
31044;BME280;17710;52.520;13.352;2022-11-18T08:02:18;100293.88;;;6.03;45.86
31044;BME280;17710;52.520;13.352;2022-11-18T08:04:44;100287.78;;;6.03;45.88
31044;BME280;17710;52.520;13.352;2022-11-18T08:07:11;100298.19;;;6.04;46.38
31044;BME280;17710;52.520;13.352;2022-11-18T08:09:38;100299.78;;;6.11;45.55
31044;BME280;17710;52.520;13.352;2022-11-18T08:12:05;100305.97;;;6.09;45.13
31044;BME280;17710;52.520;13.352;2022-11-18T08:14:31;100307.47;;;5.80;45.67
31044;BME280;17710;52.520;13.352;2022-11-18T08:17:00;100312.19;;;6.05;45.56
31044;BME280;17710;52.520;13.352;2022-11-18T08:19:26;100304.16;;;6.11;45.50
31044;BME280;17710;52.520;13.352;2022-11-18T08:21:53;100317.44;;;6.05;45.27
31044;BME280;17710;52.520;13.352;2022-11-18T08:24:19;100316.09;;;5.85;45.71
31044;BME280;17710;52.520;13.352;2022-11-18T08:26:46;100316.81;;;5.93;45.80
31044;BME280;17710;52.520;13.352;2022-11-18T08:29:12;100325.97;;;5.74;45.76
31044;BME280;17710;52.520;13.352;2022-11-18T08:31:39;100325.97;;;5.74;45.55
31044;BME280;17710;52.520;13.352;2022-11-18T08:34:07;100326.84;;;5.75;45.77
31044;BME280;17710;52.520;13.352;2022-11-18T08:36:35;100322.88;;;5.57;46.06
31044;BME280;17710;52.520;13.352;2022-11-18T08:39:03;100324.03;;;5.84;45.70
31044;BME280;17710;52.520;13.352;2022-11-18T08:41:32;100325.78;;;5.83;45.63
31044;BME280;17710;52.520;13.352;2022-11-18T08:43:59;100335.88;;;6.02;45.70
31044;BME280;17710;52.520;13.352;2022-11-18T08:46:29;100344.50;;;6.07;45.28
31044;BME280;17710;52.520;13.352;2022-11-18T08:48:56;100349.81;;;6.04;45.39
31044;BME280;17710;52.520;13.352;2022-11-18T08:51:24;100349.09;;;5.97;45.45
31044;BME280;17710;52.520;13.352;2022-11-18T08:53:54;100352.88;;;5.84;45.41
31044;BME280;17710;52.520;13.352;2022-11-18T08:56:21;100355.78;;;5.70;45.28
31044;BME280;17710;52.520;13.352;2022-11-18T08:58:48;100360.91;;;5.33;45.74
31044;BME280;17710;52.520;13.352;2022-11-18T09:01:15;100364.41;;;5.34;45.49
31044;BME280;17710;52.520;13.352;2022-11-18T09:03:42;100366.91;;;5.40;45.81
31044;BME280;17710;52.520;13.352;2022-11-18T09:06:10;100366.91;;;5.40;46.31
31044;BME280;17710;52.520;13.352;2022-11-18T09:08:39;100372.97;;;5.42;46.11
31044;BME280;17710;52.520;13.352;2022-11-18T09:11:06;100377.00;;;5.58;45.55
31044;BME280;17710;52.520;13.352;2022-11-18T09:13:33;100388.06;;;5.72;45.33
31044;BME280;17710;52.520;13.352;2022-11-18T09:16:00;100385.00;;;5.52;44.99
31044;BME280;17710;52.520;13.352;2022-11-18T09:18:31;100389.28;;;5.57;45.81
31044;BME280;17710;52.520;13.352;2022-11-18T09:20:59;100398.94;;;5.54;45.66
31044;BME280;17710;52.520;13.352;2022-11-18T09:23:26;100398.03;;;5.55;45.87
31044;BME280;17710;52.520;13.352;2022-11-18T09:25:57;100408.28;;;5.66;45.81
31044;BME280;17710;52.520;13.352;2022-11-18T09:28:27;100409.88;;;5.74;45.50
31044;BME280;17710;52.520;13.352;2022-11-18T09:30:54;100407.38;;;5.68;45.97
31044;BME280;17710;52.520;13.352;2022-11-18T09:33:20;100414.84;;;5.89;45.89
31044;BME280;17710;52.520;13.352;2022-11-18T09:35:47;100411.78;;;5.66;45.83
31044;BME280;17710;52.520;13.352;2022-11-18T09:38:14;100423.56;;;5.90;45.78
31044;BME280;17710;52.520;13.352;2022-11-18T09:40:55;100426.94;;;5.95;45.64
31044;BME280;17710;52.520;13.352;2022-11-18T09:43:27;100418.44;;;5.82;45.05
31044;BME280;17710;52.520;13.352;2022-11-18T09:46:07;100414.22;;;5.75;45.32
31044;BME280;17710;52.520;13.352;2022-11-18T09:48:40;100426.13;;;5.48;46.29
31044;BME280;17710;52.520;13.352;2022-11-18T09:51:31;100425.38;;;5.43;46.51
31044;BME280;17710;52.520;13.352;2022-11-18T09:54:01;100424.22;;;5.56;46.27
31044;BME280;17710;52.520;13.352;2022-11-18T09:56:28;100426.81;;;5.58;45.86
31044;BME280;17710;52.520;13.352;2022-11-18T09:58:56;100435.59;;;5.98;45.62
31044;BME280;17710;52.520;13.352;2022-11-18T10:01:23;100437.22;;;6.04;45.30
31044;BME280;17710;52.520;13.352;2022-11-18T10:03:49;100436.19;;;6.11;44.67
31044;BME280;17710;52.520;13.352;2022-11-18T10:06:23;100449.56;;;6.00;44.40
31044;BME280;17710;52.520;13.352;2022-11-18T10:09:01;100445.34;;;5.93;44.61
31044;BME280;17710;52.520;13.352;2022-11-18T10:11:34;100444.66;;;6.24;44.12
31044;BME280;17710;52.520;13.352;2022-11-18T10:14:18;100448.63;;;6.03;43.81
31044;BME280;17710;52.520;13.352;2022-11-18T10:16:53;100450.34;;;6.04;43.57
31044;BME280;17710;52.520;13.352;2022-11-18T10:19:29;100446.75;;;6.08;43.57
31044;BME280;17710;52.520;13.352;2022-11-18T10:22:13;100453.91;;;6.02;43.78
31044;BME280;17710;52.520;13.352;2022-11-18T10:24:48;100446.06;;;6.00;43.46
31044;BME280;17710;52.520;13.352;2022-11-18T10:27:15;100446.63;;;6.14;43.71
31044;BME280;17710;52.520;13.352;2022-11-18T10:29:44;100454.09;;;6.31;43.32
31044;BME280;17710;52.520;13.352;2022-11-18T10:32:13;100452.44;;;6.28;43.42
31044;BME280;17710;52.520;13.352;2022-11-18T10:34:46;100452.78;;;6.50;42.90
31044;BME280;17710;52.520;13.352;2022-11-18T10:37:22;100467.81;;;6.05;43.43
31044;BME280;17710;52.520;13.352;2022-11-18T10:39:50;100461.31;;;5.80;44.02
31044;BME280;17710;52.520;13.352;2022-11-18T10:42:20;100465.53;;;5.90;43.77
31044;BME280;17710;52.520;13.352;2022-11-18T10:44:51;100471.59;;;5.92;44.23
31044;BME280;17710;52.520;13.352;2022-11-18T10:47:27;100467.78;;;6.07;43.86
31044;BME280;17710;52.520;13.352;2022-11-18T10:49:56;100463.41;;;6.06;43.84
31044;BME280;17710;52.520;13.352;2022-11-18T10:52:23;100468.34;;;6.21;43.67
31044;BME280;17710;52.520;13.352;2022-11-18T10:57:55;100473.66;;;6.18;43.17
31044;BME280;17710;52.520;13.352;2022-11-18T11:00:35;100484.81;;;6.27;43.30
31044;BME280;17710;52.520;13.352;2022-11-18T11:03:19;100487.19;;;6.38;43.15
31044;BME280;17710;52.520;13.352;2022-11-18T11:05:47;100488.16;;;6.34;43.18
31044;BME280;17710;52.520;13.352;2022-11-18T11:08:19;100489.06;;;6.33;42.85
31044;BME280;17710;52.520;13.352;2022-11-18T11:10:53;100495.13;;;6.36;42.43
31044;BME280;17710;52.520;13.352;2022-11-18T11:13:22;100493.13;;;6.08;42.87
31044;BME280;17710;52.520;13.352;2022-11-18T11:15:54;100489.63;;;6.07;43.44
31044;BME280;17710;52.520;13.352;2022-11-18T11:18:24;100491.56;;;5.97;43.93
31044;BME280;17710;52.520;13.352;2022-11-18T11:21:10;100488.13;;;5.95;44.19
31044;BME280;17710;52.520;13.352;2022-11-18T11:23:42;100494.13;;;6.00;44.11
31044;BME280;17710;52.520;13.352;2022-11-18T11:26:14;100495.75;;;6.06;44.14
31044;BME280;17710;52.520;13.352;2022-11-18T11:28:52;100488.84;;;6.04;43.63
31044;BME280;17710;52.520;13.352;2022-11-18T11:31:29;100489.78;;;5.99;44.25
31044;BME280;17710;52.520;13.352;2022-11-18T11:34:03;100487.13;;;6.01;43.94
31044;BME280;17710;52.520;13.352;2022-11-18T11:36:42;100493.13;;;6.08;43.90
31044;BME280;17710;52.520;13.352;2022-11-18T11:39:37;100487.78;;;6.11;43.85
31044;BME280;17710;52.520;13.352;2022-11-18T11:42:12;100499.69;;;6.27;43.66
31044;BME280;17710;52.520;13.352;2022-11-18T11:44:54;100494.56;;;6.61;43.81
31044;BME280;17710;52.520;13.352;2022-11-18T11:47:34;100493.69;;;6.60;43.41
31044;BME280;17710;52.520;13.352;2022-11-18T11:50:17;100493.19;;;6.82;43.12
31044;BME280;17710;52.520;13.352;2022-11-18T11:52:52;100492.47;;;6.75;42.96
31044;BME280;17710;52.520;13.352;2022-11-18T11:55:25;100502.81;;;6.83;43.08
31044;BME280;17710;52.520;13.352;2022-11-18T11:58:15;100499.34;;;6.80;42.81
31044;BME280;17710;52.520;13.352;2022-11-18T12:00:52;100494.84;;;6.49;42.77
31044;BME280;17710;52.520;13.352;2022-11-18T12:03:40;100500.81;;;6.55;42.81
31044;BME280;17710;52.520;13.352;2022-11-18T12:06:09;100496.47;;;6.54;42.68
31044;BME280;17710;52.520;13.352;2022-11-18T12:08:46;100505.09;;;6.59;42.77
31044;BME280;17710;52.520;13.352;2022-11-18T12:11:18;100508.06;;;6.83;42.51
31044;BME280;17710;52.520;13.352;2022-11-18T12:13:52;100502.34;;;7.01;41.62
31044;BME280;17710;52.520;13.352;2022-11-18T12:16:27;100514.06;;;6.88;41.95
31044;BME280;17710;52.520;13.352;2022-11-18T12:18:59;100519.84;;;7.02;41.42
31044;BME280;17710;52.520;13.352;2022-11-18T12:21:51;100520.56;;;7.08;41.33
31044;BME280;17710;52.520;13.352;2022-11-18T12:24:37;100526.91;;;6.98;40.58
31044;BME280;17710;52.520;13.352;2022-11-18T12:27:09;100530.56;;;6.93;40.58
31044;BME280;17710;52.520;13.352;2022-11-18T12:29:55;100532.63;;;6.80;40.26
31044;BME280;17710;52.520;13.352;2022-11-18T12:32:28;100534.22;;;6.86;40.47
31044;BME280;17710;52.520;13.352;2022-11-18T12:34:58;100536.03;;;7.19;40.03
31044;BME280;17710;52.520;13.352;2022-11-18T12:37:56;100543.94;;;7.17;40.13
31044;BME280;17710;52.520;13.352;2022-11-18T12:40:38;100538.84;;;7.47;39.76
31044;BME280;17710;52.520;13.352;2022-11-18T12:52:51;100534.34;;;7.83;38.50
31044;BME280;17710;52.520;13.352;2022-11-18T12:55:24;100543.13;;;7.82;38.38
31044;BME280;17710;52.520;13.352;2022-11-18T12:57:55;100544.34;;;7.36;38.86
31044;BME280;17710;52.520;13.352;2022-11-18T13:00:30;100548.69;;;7.39;38.85
31044;BME280;17710;52.520;13.352;2022-11-18T13:03:20;100551.72;;;7.56;38.51
31044;BME280;17710;52.520;13.352;2022-11-18T13:05:49;100535.19;;;7.52;38.79
31044;BME280;17710;52.520;13.352;2022-11-18T13:08:18;100541.91;;;7.63;38.05
31044;BME280;17710;52.520;13.352;2022-11-18T13:10:46;100543.59;;;7.97;38.13
31044;BME280;17710;52.520;13.352;2022-11-18T13:13:23;100545.28;;;8.29;37.23
31044;BME280;17710;52.520;13.352;2022-11-18T13:15:51;100546.91;;;8.64;36.17
31044;BME280;17710;52.520;13.352;2022-11-18T13:18:47;100547.75;;;8.93;36.08
31044;BME280;17710;52.520;13.352;2022-11-18T13:21:20;100553.69;;;9.26;35.48
31044;BME280;17710;52.520;13.352;2022-11-18T13:24:10;100555.84;;;9.41;34.77
31044;BME280;17710;52.520;13.352;2022-11-18T13:26:39;100560.25;;;9.40;34.92